Time;durP1;ratioP1;P1;durP2;ratioP2;P2;SDS_P1;SDS_P2;PMS_P1;PMS_P2;Temp;Humidity;BMP_temperature;BMP_pressure;BME280_temperature;BME280_humidity;BME280_pressure;Samples;Min_cycle;Max_cycle;Signal;HPM_P1;HPM_P2
2022/10/11 00:00:36;;;;;;;;;;;17.00;89.60;;;;;;5041784;28;19924;-75
2022/10/11 00:03:04;;;;;;;;;;;17.00;89.60;;;;;;5042589;28;19932;-75
2022/10/11 00:05:30;;;;;;;;;;;16.90;89.60;;;;;;5044390;28;19929;-74
2022/10/11 00:07:57;;;;;;;;;;;16.90;89.70;;;;;;5048393;28;19925;-74
2022/10/11 00:10:24;;;;;;;;;;;17.00;89.80;;;;;;5039723;28;20549;-75
2022/10/11 00:12:52;;;;;;;;;;;16.90;89.80;;;;;;5041467;28;19932;-75
2022/10/11 00:15:20;;;;;;;;;;;16.90;89.80;;;;;;5041811;28;19983;-75
2022/10/11 00:17:47;;;;;;;;;;;16.90;89.90;;;;;;5040491;28;19925;-75
2022/10/11 00:20:15;;;;;;;;;;;16.80;89.90;;;;;;5042892;28;19928;-74
2022/10/11 00:22:42;;;;;;;;;;;16.80;90.00;;;;;;5044295;28;19936;-74
2022/10/11 00:25:10;;;;;;;;;;;16.80;90.00;;;;;;5042958;28;19932;-74
2022/10/11 00:27:36;;;;;;;;;;;16.80;90.10;;;;;;5041464;28;19933;-75
2022/10/11 00:30:04;;;;;;;;;;;16.80;90.40;;;;;;5038212;28;19925;-75
2022/10/11 00:32:32;;;;;;;;;;;16.80;90.00;;;;;;5041076;28;19940;-75
2022/10/11 00:35:03;;;;;;;;;;;16.70;90.00;;;;;;5042094;28;20575;-73
2022/10/11 00:37:31;;;;;;;;;;;16.70;90.10;;;;;;5042298;28;19990;-74
2022/10/11 00:39:58;;;;;;;;;;;16.70;90.10;;;;;;5042698;28;19947;-74
2022/10/11 00:42:24;;;;;;;;;;;16.70;90.10;;;;;;5040939;28;19925;-75
2022/10/11 00:44:51;;;;;;;;;;;16.70;90.10;;;;;;5039445;28;19929;-75
2022/10/11 00:47:19;;;;;;;;;;;16.60;90.10;;;;;;5035407;28;19937;-75
2022/10/11 00:49:46;;;;;;;;;;;16.60;90.10;;;;;;5043683;28;19929;-76
2022/10/11 00:52:17;;;;;;;;;;;16.70;90.20;;;;;;5041629;28;21405;-74
2022/10/11 00:54:47;;;;;;;;;;;16.60;90.20;;;;;;5037811;28;20384;-75
2022/10/11 00:57:17;;;;;;;;;;;16.70;90.20;;;;;;5041278;28;19928;-75
2022/10/11 00:59:46;;;;;;;;;;;16.60;90.20;;;;;;5040669;28;20020;-75
2022/10/11 01:02:13;;;;;;;;;;;16.60;90.20;;;;;;5038076;28;20579;-75
2022/10/11 01:04:40;;;;;;;;;;;16.60;90.20;;;;;;5035521;28;20825;-75
2022/10/11 01:07:06;;;;;;;;;;;16.60;90.30;;;;;;5039428;28;19933;-75
2022/10/11 01:09:33;;;;;;;;;;;16.60;90.30;;;;;;5041996;28;19935;-74
2022/10/11 01:12:03;;;;;;;;;;;16.60;90.30;;;;;;5042354;28;19933;-73
2022/10/11 01:14:43;;;;;;;;;;;16.50;90.30;;;;;;5043230;28;19944;-75
2022/10/11 01:17:14;;;;;;;;;;;16.50;90.30;;;;;;5040767;28;19940;-74
2022/10/11 01:19:51;;;;;;;;;;;16.50;90.40;;;;;;5042874;28;20304;-75
2022/10/11 01:22:28;;;;;;;;;;;16.50;90.40;;;;;;5038629;28;19940;-73
2022/10/11 01:25:06;;;;;;;;;;;16.50;90.40;;;;;;5040433;28;19929;-75
2022/10/11 01:27:38;;;;;;;;;;;16.50;90.50;;;;;;5037540;28;19937;-75
2022/10/11 01:30:08;;;;;;;;;;;16.50;90.50;;;;;;5038301;28;19935;-75
2022/10/11 01:32:40;;;;;;;;;;;16.50;90.50;;;;;;5041148;28;19944;-75
2022/10/11 01:35:10;;;;;;;;;;;16.40;90.50;;;;;;5039282;28;19932;-75
2022/10/11 01:37:38;;;;;;;;;;;16.40;90.50;;;;;;5040929;28;19940;-74
2022/10/11 01:40:08;;;;;;;;;;;16.40;90.60;;;;;;5045028;28;19929;-75
2022/10/11 01:42:36;;;;;;;;;;;16.40;90.60;;;;;;5043267;28;19929;-74
2022/10/11 01:45:03;;;;;;;;;;;16.40;90.60;;;;;;5047063;28;19928;-75
2022/10/11 01:47:29;;;;;;;;;;;16.40;90.60;;;;;;5042812;28;19929;-75
2022/10/11 01:49:58;;;;;;;;;;;16.40;90.60;;;;;;5048104;28;20266;-75
2022/10/11 01:52:26;;;;;;;;;;;16.40;90.60;;;;;;5043033;28;19928;-74
2022/10/11 01:55:04;;;;;;;;;;;16.30;90.60;;;;;;5039643;28;20400;-75
2022/10/11 01:57:41;;;;;;;;;;;16.40;90.70;;;;;;5043945;28;19928;-75
2022/10/11 02:00:09;;;;;;;;;;;16.40;90.70;;;;;;5043112;28;20392;-74
2022/10/11 02:02:44;;;;;;;;;;;16.30;90.70;;;;;;5045384;28;20373;-75
2022/10/11 02:05:15;;;;;;;;;;;16.30;90.70;;;;;;5044663;28;19979;-74
2022/10/11 02:07:44;;;;;;;;;;;16.30;90.70;;;;;;5041202;28;19999;-75
2022/10/11 02:10:12;;;;;;;;;;;16.30;90.80;;;;;;5038181;28;20083;-74
2022/10/11 02:12:42;;;;;;;;;;;16.30;90.70;;;;;;5044910;28;19976;-75
2022/10/11 02:15:09;;;;;;;;;;;16.30;90.80;;;;;;5044081;28;19982;-74
2022/10/11 02:17:38;;;;;;;;;;;16.30;90.80;;;;;;5042958;28;19991;-74
2022/10/11 02:20:08;;;;;;;;;;;16.30;90.80;;;;;;5044164;28;20924;-74
2022/10/11 02:22:38;;;;;;;;;;;16.20;90.80;;;;;;5043835;28;19976;-73
2022/10/11 02:25:07;;;;;;;;;;;16.20;90.80;;;;;;5043231;28;19986;-74
2022/10/11 02:27:35;;;;;;;;;;;16.20;90.90;;;;;;5044524;28;19979;-74
2022/10/11 02:30:04;;;;;;;;;;;16.20;90.90;;;;;;5044110;28;19996;-75
2022/10/11 02:32:30;;;;;;;;;;;16.20;90.90;;;;;;5042982;28;19992;-75
2022/10/11 02:34:58;;;;;;;;;;;16.20;90.90;;;;;;5042195;28;20440;-74
2022/10/11 02:37:27;;;;;;;;;;;16.20;90.90;;;;;;5046330;28;19982;-75
2022/10/11 02:39:58;;;;;;;;;;;16.10;90.90;;;;;;5045553;28;19998;-74
2022/10/11 02:42:27;;;;;;;;;;;16.10;90.90;;;;;;5041320;28;19983;-75
2022/10/11 02:44:59;;;;;;;;;;;16.10;90.90;;;;;;5044549;28;20371;-75
2022/10/11 02:47:26;;;;;;;;;;;16.10;90.90;;;;;;5042204;28;20133;-73
2022/10/11 02:49:52;;;;;;;;;;;16.10;91.00;;;;;;5042695;28;20007;-74
2022/10/11 02:52:19;;;;;;;;;;;16.10;91.00;;;;;;5043479;28;19976;-74
2022/10/11 02:54:46;;;;;;;;;;;16.10;91.00;;;;;;5042639;28;19975;-75
2022/10/11 02:57:14;;;;;;;;;;;16.10;91.10;;;;;;5045590;28;19986;-75
2022/10/11 02:59:40;;;;;;;;;;;16.10;91.10;;;;;;5044111;28;19999;-75
2022/10/11 03:02:07;;;;;;;;;;;16.10;91.10;;;;;;5043318;28;20007;-75
2022/10/11 03:04:33;;;;;;;;;;;16.10;91.40;;;;;;5046928;28;20530;-75
2022/10/11 03:07:00;;;;;;;;;;;16.00;91.10;;;;;;5044961;28;19976;-75
2022/10/11 03:09:26;;;;;;;;;;;16.00;91.10;;;;;;5044144;28;20003;-75
2022/10/11 03:11:53;;;;;;;;;;;16.00;91.10;;;;;;5044434;28;19975;-74
2022/10/11 03:14:21;;;;;;;;;;;16.00;91.10;;;;;;5046238;28;19979;-75
2022/10/11 03:16:48;;;;;;;;;;;16.00;91.10;;;;;;5044790;28;19992;-75
2022/10/11 03:19:14;;;;;;;;;;;16.00;91.00;;;;;;5038862;28;20518;-74
2022/10/11 03:21:41;;;;;;;;;;;15.90;91.00;;;;;;5039465;28;20595;-75
2022/10/11 03:24:07;;;;;;;;;;;15.90;91.00;;;;;;5043568;28;20448;-75
2022/10/11 03:26:34;;;;;;;;;;;15.90;91.00;;;;;;5040891;28;19979;-74
2022/10/11 03:29:00;;;;;;;;;;;15.90;91.00;;;;;;5044778;28;19995;-74
2022/10/11 03:31:28;;;;;;;;;;;15.90;91.00;;;;;;5042832;28;19991;-74
2022/10/11 03:33:55;;;;;;;;;;;15.90;91.00;;;;;;5040396;28;19975;-75
2022/10/11 03:36:21;;;;;;;;;;;15.90;91.00;;;;;;5041437;28;19976;-75
2022/10/11 03:38:48;;;;;;;;;;;15.90;90.90;;;;;;5045238;28;20223;-75
2022/10/11 03:41:14;;;;;;;;;;;15.90;90.90;;;;;;5039142;28;20627;-76
2022/10/11 03:43:41;;;;;;;;;;;15.90;91.00;;;;;;5044461;28;20527;-75
2022/10/11 03:46:07;;;;;;;;;;;15.80;90.90;;;;;;5042697;28;20493;-75
2022/10/11 03:48:35;;;;;;;;;;;15.80;90.90;;;;;;5042412;28;20000;-76
2022/10/11 03:51:02;;;;;;;;;;;15.80;90.90;;;;;;5043833;28;19980;-75
2022/10/11 03:53:28;;;;;;;;;;;15.80;90.90;;;;;;5044310;28;19980;-76
2022/10/11 03:55:55;;;;;;;;;;;15.80;91.00;;;;;;5043732;28;20073;-76
2022/10/11 03:58:22;;;;;;;;;;;15.80;91.00;;;;;;5042723;28;19979;-76
2022/10/11 04:00:49;;;;;;;;;;;15.80;91.00;;;;;;5043108;28;20006;-76
2022/10/11 04:03:15;;;;;;;;;;;15.80;91.00;;;;;;5041798;28;20467;-76
2022/10/11 04:05:43;;;;;;;;;;;15.80;91.00;;;;;;5043721;28;20415;-75
2022/10/11 04:08:10;;;;;;;;;;;15.80;91.00;;;;;;5043262;28;20502;-76
2022/10/11 04:10:36;;;;;;;;;;;15.70;91.00;;;;;;5042723;28;20003;-75
2022/10/11 04:13:03;;;;;;;;;;;15.70;91.00;;;;;;5043907;28;19983;-75
2022/10/11 04:15:30;;;;;;;;;;;15.70;91.00;;;;;;5040223;28;20428;-75
2022/10/11 04:17:56;;;;;;;;;;;15.60;91.00;;;;;;5043989;28;19982;-76
2022/10/11 04:20:23;;;;;;;;;;;15.60;91.10;;;;;;5039034;28;19992;-76
2022/10/11 04:22:51;;;;;;;;;;;15.60;91.10;;;;;;5042014;28;19975;-76
2022/10/11 04:25:17;;;;;;;;;;;15.60;91.10;;;;;;5036499;28;19979;-75
2022/10/11 04:27:44;;;;;;;;;;;15.60;91.10;;;;;;5034921;28;19976;-76
2022/10/11 04:30:11;;;;;;;;;;;15.60;91.10;;;;;;5039532;28;19999;-75
2022/10/11 04:32:37;;;;;;;;;;;15.50;91.10;;;;;;5035303;28;19991;-76
2022/10/11 04:35:04;;;;;;;;;;;15.50;91.10;;;;;;5039299;28;19990;-75
2022/10/11 04:37:31;;;;;;;;;;;15.50;91.50;;;;;;5041717;28;20004;-76
2022/10/11 04:39:59;;;;;;;;;;;15.60;91.30;;;;;;5042748;28;19995;-75
2022/10/11 04:42:26;;;;;;;;;;;15.50;91.20;;;;;;5044477;28;19980;-75
2022/10/11 04:44:52;;;;;;;;;;;15.50;91.20;;;;;;5042753;28;19990;-76
2022/10/11 04:47:19;;;;;;;;;;;15.50;91.30;;;;;;5039535;28;19992;-73
2022/10/11 04:49:45;;;;;;;;;;;15.50;91.30;;;;;;5043633;28;19995;-75
2022/10/11 04:52:12;;;;;;;;;;;15.40;91.30;;;;;;5041165;28;19987;-75
2022/10/11 04:54:38;;;;;;;;;;;15.50;91.30;;;;;;5043103;28;19976;-75
2022/10/11 04:57:06;;;;;;;;;;;15.40;91.30;;;;;;5041619;28;19986;-75
2022/10/11 04:59:33;;;;;;;;;;;15.50;91.30;;;;;;5041759;28;19994;-75
2022/10/11 05:01:59;;;;;;;;;;;15.40;91.10;;;;;;5035176;28;20274;-76
2022/10/11 05:04:26;;;;;;;;;;;15.30;91.30;;;;;;5044055;28;19968;-74
2022/10/11 05:06:53;;;;;;;;;;;15.20;91.40;;;;;;5036852;28;19976;-76
2022/10/11 05:09:20;;;;;;;;;;;15.20;91.50;;;;;;5041064;28;20439;-76
2022/10/11 05:11:47;;;;;;;;;;;15.20;91.50;;;;;;5038742;28;20011;-76
2022/10/11 05:14:15;;;;;;;;;;;15.20;91.50;;;;;;5041617;28;19976;-76
2022/10/11 05:16:41;;;;;;;;;;;15.20;91.60;;;;;;5037485;28;19988;-76
2022/10/11 05:19:08;;;;;;;;;;;15.20;91.60;;;;;;5038237;28;19992;-75
2022/10/11 05:21:34;;;;;;;;;;;15.20;91.60;;;;;;5041347;28;19976;-75
2022/10/11 05:24:01;;;;;;;;;;;15.20;91.60;;;;;;5043610;28;19984;-75
2022/10/11 05:26:28;;;;;;;;;;;15.20;91.60;;;;;;5043698;28;19983;-75
2022/10/11 05:28:55;;;;;;;;;;;15.20;91.60;;;;;;5037619;28;20002;-76
2022/10/11 05:31:22;;;;;;;;;;;15.20;91.70;;;;;;5037261;28;19999;-76
2022/10/11 05:33:49;;;;;;;;;;;15.20;91.70;;;;;;5037823;28;20348;-75
2022/10/11 05:36:16;;;;;;;;;;;15.10;91.70;;;;;;5040258;28;19979;-77
2022/10/11 05:38:42;;;;;;;;;;;15.20;91.70;;;;;;5040433;28;20705;-76
2022/10/11 05:41:12;;;;;;;;;;;15.10;91.70;;;;;;5034658;28;20447;-75
2022/10/11 05:43:38;;;;;;;;;;;15.10;91.70;;;;;;5038969;28;19986;-75
2022/10/11 05:46:05;;;;;;;;;;;15.10;91.70;;;;;;5040993;28;20338;-75
2022/10/11 05:48:33;;;;;;;;;;;15.10;91.70;;;;;;5037674;28;20067;-76
2022/10/11 05:51:01;;;;;;;;;;;15.10;91.70;;;;;;5041592;28;20153;-75
2022/10/11 05:53:28;;;;;;;;;;;15.10;91.80;;;;;;5041060;28;20394;-76
2022/10/11 05:55:54;;;;;;;;;;;15.10;91.80;;;;;;5043020;28;19979;-76
2022/10/11 05:58:21;;;;;;;;;;;15.00;91.80;;;;;;5035401;28;19983;-76
2022/10/11 06:00:48;;;;;;;;;;;15.10;91.80;;;;;;5041809;28;20010;-76
2022/10/11 06:03:15;;;;;;;;;;;15.10;91.80;;;;;;5039129;28;19980;-76
2022/10/11 06:05:43;;;;;;;;;;;15.10;91.90;;;;;;5041686;28;19976;-75
2022/10/11 06:08:09;;;;;;;;;;;15.00;91.90;;;;;;5040585;28;19987;-75
2022/10/11 06:10:36;;;;;;;;;;;15.00;91.80;;;;;;5040278;28;20005;-75
2022/10/11 06:13:03;;;;;;;;;;;15.00;91.80;;;;;;5040643;28;19980;-76
2022/10/11 06:15:30;;;;;;;;;;;15.00;91.80;;;;;;5042583;28;20004;-76
2022/10/11 06:17:58;;;;;;;;;;;15.00;91.90;;;;;;5044140;28;20482;-76
2022/10/11 06:20:24;;;;;;;;;;;14.90;91.80;;;;;;5045971;28;20463;-76
2022/10/11 06:22:52;;;;;;;;;;;15.00;91.90;;;;;;5041592;28;19983;-77
2022/10/11 06:25:19;;;;;;;;;;;15.00;91.90;;;;;;5041316;28;19980;-76
2022/10/11 06:27:45;;;;;;;;;;;14.90;91.90;;;;;;5048332;28;19982;-76
2022/10/11 06:30:12;;;;;;;;;;;14.90;91.80;;;;;;5043328;28;19996;-75
2022/10/11 06:32:39;;;;;;;;;;;14.90;91.90;;;;;;5041782;28;20058;-76
2022/10/11 06:35:06;;;;;;;;;;;14.90;91.90;;;;;;5042219;28;19980;-76
2022/10/11 06:37:32;;;;;;;;;;;14.90;91.90;;;;;;5045933;28;20881;-74
2022/10/11 06:40:00;;;;;;;;;;;14.90;91.80;;;;;;5039295;28;20494;-75
2022/10/11 06:42:27;;;;;;;;;;;14.90;91.80;;;;;;5045828;28;20402;-76
2022/10/11 06:44:54;;;;;;;;;;;14.90;91.80;;;;;;5044491;28;20463;-76
2022/10/11 06:47:20;;;;;;;;;;;14.90;91.80;;;;;;5040274;28;20521;-75
2022/10/11 06:49:47;;;;;;;;;;;14.90;91.80;;;;;;5043257;28;19995;-76
2022/10/11 06:52:13;;;;;;;;;;;14.80;91.70;;;;;;5045434;28;20002;-76
2022/10/11 06:54:40;;;;;;;;;;;14.80;91.70;;;;;;5045577;28;19998;-75
2022/10/11 06:57:08;;;;;;;;;;;14.80;91.70;;;;;;5043679;28;19980;-75
2022/10/11 06:59:35;;;;;;;;;;;14.80;91.60;;;;;;5045501;28;20602;-76
2022/10/11 07:02:02;;;;;;;;;;;14.80;91.60;;;;;;5042863;28;20479;-76
2022/10/11 07:04:28;;;;;;;;;;;14.80;91.50;;;;;;5044988;28;19983;-76
2022/10/11 07:06:55;;;;;;;;;;;14.80;91.50;;;;;;5046095;28;19980;-76
2022/10/11 07:09:21;;;;;;;;;;;14.80;91.60;;;;;;5043536;28;20006;-76
2022/10/11 07:11:48;;;;;;;;;;;14.80;91.40;;;;;;5044508;28;19998;-76
2022/10/11 07:14:16;;;;;;;;;;;14.80;91.40;;;;;;5043523;28;19987;-76
2022/10/11 07:16:42;;;;;;;;;;;14.80;91.30;;;;;;5044564;28;19992;-76
2022/10/11 07:19:09;;;;;;;;;;;14.80;91.30;;;;;;5041306;28;19991;-75
2022/10/11 07:21:36;;;;;;;;;;;14.80;91.30;;;;;;5041600;28;19999;-75
2022/10/11 07:24:03;;;;;;;;;;;14.70;91.20;;;;;;5040940;28;20584;-75
2022/10/11 07:26:30;;;;;;;;;;;14.80;91.20;;;;;;5039744;28;19972;-76
2022/10/11 07:28:57;;;;;;;;;;;14.70;91.20;;;;;;5043671;28;20002;-76
2022/10/11 07:31:25;;;;;;;;;;;14.80;91.10;;;;;;5039965;28;19988;-74
2022/10/11 07:33:51;;;;;;;;;;;14.70;91.10;;;;;;5042811;28;19983;-76
2022/10/11 07:36:18;;;;;;;;;;;14.70;91.00;;;;;;5042352;28;19972;-77
2022/10/11 07:38:45;;;;;;;;;;;14.70;91.00;;;;;;5039568;28;19988;-76
2022/10/11 07:41:12;;;;;;;;;;;14.70;91.00;;;;;;5037389;28;19991;-76
2022/10/11 07:43:39;;;;;;;;;;;14.70;91.00;;;;;;5039507;28;19971;-75
2022/10/11 07:46:06;;;;;;;;;;;14.80;91.00;;;;;;5042073;28;20011;-76
2022/10/11 07:48:34;;;;;;;;;;;14.70;91.20;;;;;;5038658;28;20011;-76
2022/10/11 07:51:02;;;;;;;;;;;14.70;90.80;;;;;;5043364;28;19999;-75
2022/10/11 07:53:28;;;;;;;;;;;14.70;90.80;;;;;;5039840;28;19982;-75
2022/10/11 07:55:55;;;;;;;;;;;14.70;90.80;;;;;;5041439;28;19980;-76
2022/10/11 07:58:21;;;;;;;;;;;14.70;90.80;;;;;;5042031;28;19986;-75
2022/10/11 08:00:52;;;;;;;;;;;14.70;90.70;;;;;;5037960;28;20007;-75
2022/10/11 08:03:18;;;;;;;;;;;14.70;90.70;;;;;;5035803;28;19976;-76
2022/10/11 08:05:46;;;;;;;;;;;14.70;90.60;;;;;;5042905;28;19976;-76
2022/10/11 08:08:13;;;;;;;;;;;14.70;90.60;;;;;;5033912;28;19975;-75
2022/10/11 08:10:39;;;;;;;;;;;14.70;90.50;;;;;;5039248;28;19992;-76
2022/10/11 08:13:06;;;;;;;;;;;14.70;90.50;;;;;;5040091;28;20440;-75
2022/10/11 08:15:33;;;;;;;;;;;14.70;90.40;;;;;;5039810;28;20038;-75
2022/10/11 08:17:59;;;;;;;;;;;14.60;90.30;;;;;;5039688;28;19976;-75
2022/10/11 08:20:26;;;;;;;;;;;14.70;90.40;;;;;;5039557;28;19992;-76
2022/10/11 08:22:55;;;;;;;;;;;14.70;90.30;;;;;;5036981;28;19976;-75
2022/10/11 08:25:21;;;;;;;;;;;14.70;90.30;;;;;;5038268;28;19987;-76
2022/10/11 08:27:48;;;;;;;;;;;14.60;90.20;;;;;;5040001;28;19987;-76
2022/10/11 08:30:14;;;;;;;;;;;14.70;90.20;;;;;;5034219;28;20425;-76
2022/10/11 08:32:41;;;;;;;;;;;14.60;90.10;;;;;;5032841;28;19976;-75
2022/10/11 08:35:08;;;;;;;;;;;14.70;90.10;;;;;;5038939;28;20629;-75
2022/10/11 08:37:34;;;;;;;;;;;14.70;90.10;;;;;;5041100;28;19976;-76
2022/10/11 08:40:02;;;;;;;;;;;14.70;90.00;;;;;;5040342;28;20007;-75
2022/10/11 08:42:33;;;;;;;;;;;14.70;90.00;;;;;;5041460;28;20059;-75
2022/10/11 08:45:04;;;;;;;;;;;14.70;90.00;;;;;;5040938;28;19980;-74
2022/10/11 08:47:32;;;;;;;;;;;14.70;90.00;;;;;;5035371;28;20083;-76
2022/10/11 08:49:59;;;;;;;;;;;14.70;90.00;;;;;;5037259;28;20022;-75
2022/10/11 08:52:27;;;;;;;;;;;14.70;90.00;;;;;;5039769;28;20626;-75
2022/10/11 08:54:55;;;;;;;;;;;14.60;89.70;;;;;;5039355;28;19991;-76
2022/10/11 08:57:25;;;;;;;;;;;14.70;89.80;;;;;;5036953;28;20379;-76
2022/10/11 08:59:53;;;;;;;;;;;14.70;89.60;;;;;;5038831;28;20022;-75
2022/10/11 09:02:23;;;;;;;;;;;14.70;89.50;;;;;;5033464;28;20031;-76
2022/10/11 09:04:53;;;;;;;;;;;14.70;89.40;;;;;;5034265;28;19982;-76
2022/10/11 09:07:26;;;;;;;;;;;14.70;89.30;;;;;;5038719;28;19979;-76
2022/10/11 09:10:00;;;;;;;;;;;14.70;89.30;;;;;;5039953;28;19999;-75
2022/10/11 09:12:33;;;;;;;;;;;14.70;89.00;;;;;;5034718;28;20078;-73
2022/10/11 09:15:11;;;;;;;;;;;14.70;88.90;;;;;;5038279;28;19976;-75
2022/10/11 09:17:44;;;;;;;;;;;14.70;88.80;;;;;;5036966;28;19991;-75
2022/10/11 09:20:23;;;;;;;;;;;14.80;88.70;;;;;;5030857;28;20006;-76
2022/10/11 09:22:52;;;;;;;;;;;14.80;88.80;;;;;;5037922;28;19983;-77
2022/10/11 09:25:22;;;;;;;;;;;14.80;88.70;;;;;;5037799;28;19980;-76
2022/10/11 09:27:53;;;;;;;;;;;14.80;88.60;;;;;;5032920;28;19980;-75
2022/10/11 09:30:20;;;;;;;;;;;14.80;88.30;;;;;;5032589;28;20006;-76
2022/10/11 09:32:47;;;;;;;;;;;14.90;88.00;;;;;;5037079;28;19983;-76
2022/10/11 09:35:15;;;;;;;;;;;14.90;87.90;;;;;;5033348;28;20337;-75
2022/10/11 09:37:49;;;;;;;;;;;15.00;87.80;;;;;;5040019;28;19979;-75
2022/10/11 09:40:28;;;;;;;;;;;15.00;87.80;;;;;;5037269;28;20019;-75
2022/10/11 09:42:58;;;;;;;;;;;15.00;87.40;;;;;;5045394;28;19976;-74
2022/10/11 09:45:24;;;;;;;;;;;15.10;87.50;;;;;;5033682;28;19987;-76
2022/10/11 09:47:52;;;;;;;;;;;15.10;87.30;;;;;;5033707;28;19994;-75
2022/10/11 09:50:20;;;;;;;;;;;15.20;87.20;;;;;;5036620;28;20010;-76
2022/10/11 09:52:48;;;;;;;;;;;15.20;87.00;;;;;;5042185;28;20003;-75
2022/10/11 09:55:29;;;;;;;;;;;15.30;87.00;;;;;;5043404;28;19980;-76
2022/10/11 09:57:57;;;;;;;;;;;15.40;86.90;;;;;;5037697;28;19976;-75
2022/10/11 10:00:24;;;;;;;;;;;15.40;86.40;;;;;;5036726;28;19992;-75
2022/10/11 10:02:52;;;;;;;;;;;15.40;86.20;;;;;;5041843;28;19980;-76
2022/10/11 10:05:19;;;;;;;;;;;15.50;85.80;;;;;;5037472;28;19976;-76
2022/10/11 10:07:57;;;;;;;;;;;15.50;85.80;;;;;;5039315;28;19979;-75
2022/10/11 10:10:29;;;;;;;;;;;15.50;85.80;;;;;;5042421;28;20002;-76
2022/10/11 10:12:58;;;;;;;;;;;15.60;85.60;;;;;;5042950;28;19976;-76
2022/10/11 10:15:27;;;;;;;;;;;15.60;85.60;;;;;;5043490;28;19987;-76
2022/10/11 10:17:54;;;;;;;;;;;15.70;85.30;;;;;;5041921;28;19983;-76
2022/10/11 10:20:22;;;;;;;;;;;15.70;85.20;;;;;;5037290;28;20348;-75
2022/10/11 10:22:49;;;;;;;;;;;15.80;85.30;;;;;;5039002;28;19980;-74
2022/10/11 10:25:21;;;;;;;;;;;15.80;85.20;;;;;;5050727;28;19979;-76
2022/10/11 10:27:55;;;;;;;;;;;15.90;85.30;;;;;;5045130;28;19981;-75
2022/10/11 10:30:23;;;;;;;;;;;15.90;85.30;;;;;;5040424;28;19995;-75
2022/10/11 10:32:52;;;;;;;;;;;16.00;84.20;;;;;;5032799;28;19987;-76
2022/10/11 10:35:27;;;;;;;;;;;16.00;84.50;;;;;;5033095;28;20559;-75
2022/10/11 10:37:58;;;;;;;;;;;16.00;84.40;;;;;;5038516;28;19994;-75
2022/10/11 10:40:37;;;;;;;;;;;16.10;84.20;;;;;;5042549;28;19992;-75
2022/10/11 10:43:04;;;;;;;;;;;16.10;84.00;;;;;;5043520;28;19980;-76
2022/10/11 10:45:36;;;;;;;;;;;16.20;84.00;;;;;;5035732;28;20165;-76
2022/10/11 10:48:14;;;;;;;;;;;16.20;83.80;;;;;;5041813;28;20003;-75
2022/10/11 10:50:45;;;;;;;;;;;16.20;83.90;;;;;;5040439;28;19995;-77
2022/10/11 10:53:18;;;;;;;;;;;16.30;83.70;;;;;;5040700;28;19980;-76
2022/10/11 10:55:45;;;;;;;;;;;16.30;83.60;;;;;;5034744;28;19982;-76
2022/10/11 10:58:25;;;;;;;;;;;16.40;83.70;;;;;;5042550;28;20359;-76
2022/10/11 11:00:56;;;;;;;;;;;16.40;83.60;;;;;;5039707;28;20031;-76
2022/10/11 11:03:26;;;;;;;;;;;16.40;83.40;;;;;;5034672;28;20084;-77
2022/10/11 11:05:56;;;;;;;;;;;16.50;83.70;;;;;;5041883;28;20636;-76
2022/10/11 11:08:30;;;;;;;;;;;16.50;83.70;;;;;;5038933;28;19983;-76
2022/10/11 11:10:59;;;;;;;;;;;16.50;83.10;;;;;;5040071;28;19987;-77
2022/10/11 11:13:30;;;;;;;;;;;16.60;83.00;;;;;;5041151;28;19976;-76
2022/10/11 11:16:06;;;;;;;;;;;16.60;83.10;;;;;;5047141;28;19998;-75
2022/10/11 11:18:37;;;;;;;;;;;16.70;82.90;;;;;;5041809;28;20071;-76
2022/10/11 11:21:10;;;;;;;;;;;16.70;82.20;;;;;;5037042;28;19980;-75
2022/10/11 11:23:39;;;;;;;;;;;16.70;82.60;;;;;;5042174;28;19980;-75
2022/10/11 11:26:09;;;;;;;;;;;16.80;82.40;;;;;;5042877;28;19987;-75
2022/10/11 11:28:49;;;;;;;;;;;16.80;82.60;;;;;;5036577;28;20468;-76
2022/10/11 11:31:23;;;;;;;;;;;16.80;82.60;;;;;;5039573;28;19995;-76
2022/10/11 11:33:57;;;;;;;;;;;16.80;82.40;;;;;;5035274;28;20455;-74
2022/10/11 11:36:27;;;;;;;;;;;16.90;82.10;;;;;;5040180;28;20459;-76
2022/10/11 11:38:57;;;;;;;;;;;16.90;82.10;;;;;;5043478;28;20619;-76
2022/10/11 11:41:26;;;;;;;;;;;16.90;82.20;;;;;;5040210;28;20379;-77
2022/10/11 11:43:56;;;;;;;;;;;16.90;82.60;;;;;;5033483;28;20007;-75
2022/10/11 11:46:26;;;;;;;;;;;16.90;82.60;;;;;;5041286;28;20143;-76
2022/10/11 11:48:54;;;;;;;;;;;16.90;82.50;;;;;;5040324;28;19996;-76
2022/10/11 11:51:23;;;;;;;;;;;16.90;82.40;;;;;;5037432;28;21232;-76
2022/10/11 11:53:53;;;;;;;;;;;16.90;82.60;;;;;;5038225;28;20113;-76
2022/10/11 11:56:29;;;;;;;;;;;16.90;82.80;;;;;;5045759;28;20027;-75
2022/10/11 11:59:02;;;;;;;;;;;17.00;82.90;;;;;;5039765;28;19995;-75
2022/10/11 12:01:32;;;;;;;;;;;17.00;82.30;;;;;;5041667;28;19999;-74
2022/10/11 12:04:02;;;;;;;;;;;16.90;82.60;;;;;;5033526;28;19980;-75
2022/10/11 12:06:30;;;;;;;;;;;17.00;82.80;;;;;;5037305;28;19976;-75
2022/10/11 12:09:02;;;;;;;;;;;17.00;83.00;;;;;;5039227;28;20498;-75
2022/10/11 12:11:38;;;;;;;;;;;17.00;82.80;;;;;;5036945;28;19996;-74
2022/10/11 12:14:14;;;;;;;;;;;17.00;82.90;;;;;;5040218;28;20461;-76
2022/10/11 12:16:56;;;;;;;;;;;17.00;82.90;;;;;;5037536;28;19992;-76
2022/10/11 12:19:24;;;;;;;;;;;17.00;82.80;;;;;;5036822;28;20007;-75
2022/10/11 12:22:11;;;;;;;;;;;17.00;82.80;;;;;;5042141;28;20344;-77
2022/10/11 12:24:52;;;;;;;;;;;17.00;82.90;;;;;;5042487;28;19975;-74
2022/10/11 12:27:33;;;;;;;;;;;17.10;83.20;;;;;;5041723;28;19975;-75
2022/10/11 12:30:00;;;;;;;;;;;17.10;82.50;;;;;;5033457;28;19998;-76
2022/10/11 12:32:50;;;;;;;;;;;17.10;82.80;;;;;;5032467;28;20471;-76
2022/10/11 12:35:36;;;;;;;;;;;17.10;82.90;;;;;;5038757;28;20022;-74
2022/10/11 12:38:06;;;;;;;;;;;17.10;82.90;;;;;;5039297;28;20091;-74
2022/10/11 12:40:34;;;;;;;;;;;17.10;83.00;;;;;;5035570;28;20057;-76
2022/10/11 12:43:25;;;;;;;;;;;17.20;82.80;;;;;;5043188;28;20053;-75
2022/10/11 12:45:51;;;;;;;;;;;17.10;82.90;;;;;;5001946;28;20503;-77
2022/10/11 12:48:28;;;;;;;;;;;17.10;82.80;;;;;;5058137;28;19976;-75
2022/10/11 12:50:58;;;;;;;;;;;17.10;83.00;;;;;;5061079;28;19998;-76
2022/10/11 12:53:32;;;;;;;;;;;17.10;83.10;;;;;;5050657;28;20019;-75
2022/10/11 12:56:00;;;;;;;;;;;17.10;83.00;;;;;;5053981;28;19979;-76
2022/10/11 12:58:29;;;;;;;;;;;17.20;83.10;;;;;;5054489;28;19987;-76
2022/10/11 13:01:10;;;;;;;;;;;17.10;83.00;;;;;;5055347;28;20803;-76
2022/10/11 13:03:39;;;;;;;;;;;17.10;82.90;;;;;;5035568;28;19975;-76
2022/10/11 13:06:15;;;;;;;;;;;17.10;83.00;;;;;;5033159;28;19976;-75
2022/10/11 13:08:45;;;;;;;;;;;17.20;82.80;;;;;;5043925;28;19992;-75
2022/10/11 13:11:16;;;;;;;;;;;17.20;82.80;;;;;;5036622;28;20071;-76
2022/10/11 13:13:44;;;;;;;;;;;17.20;82.90;;;;;;5035643;28;19976;-76
2022/10/11 13:16:13;;;;;;;;;;;17.20;83.00;;;;;;5041356;28;19998;-75
2022/10/11 13:18:41;;;;;;;;;;;17.30;82.80;;;;;;5037650;28;19992;-75
2022/10/11 13:21:15;;;;;;;;;;;17.30;83.00;;;;;;5034359;28;19976;-75
2022/10/11 13:23:43;;;;;;;;;;;17.30;83.00;;;;;;5038839;28;19983;-76
2022/10/11 13:26:09;;;;;;;;;;;17.30;83.10;;;;;;5038259;28;19983;-75
2022/10/11 13:28:36;;;;;;;;;;;17.30;83.10;;;;;;5041997;28;20542;-75
2022/10/11 13:31:04;;;;;;;;;;;17.30;83.10;;;;;;5049695;28;19995;-74
2022/10/11 13:33:32;;;;;;;;;;;17.30;82.90;;;;;;5060546;28;19998;-75
2022/10/11 13:35:59;;;;;;;;;;;17.30;83.00;;;;;;5062840;28;20023;-75
2022/10/11 13:38:26;;;;;;;;;;;17.30;83.00;;;;;;5061683;28;19978;-76
2022/10/11 13:40:55;;;;;;;;;;;17.30;83.10;;;;;;5058999;28;19979;-77
2022/10/11 13:43:24;;;;;;;;;;;17.30;82.90;;;;;;5060546;28;20571;-77
2022/10/11 13:45:50;;;;;;;;;;;17.40;83.10;;;;;;5058526;28;19991;-76
2022/10/11 13:48:17;;;;;;;;;;;17.30;83.30;;;;;;5040989;28;19976;-75
2022/10/11 13:50:50;;;;;;;;;;;17.30;82.90;;;;;;5044476;28;19979;-77
2022/10/11 13:53:24;;;;;;;;;;;17.30;83.10;;;;;;5047510;28;20000;-76
2022/10/11 13:55:52;;;;;;;;;;;17.30;83.20;;;;;;5041799;28;20018;-77
2022/10/11 13:58:23;;;;;;;;;;;17.30;82.90;;;;;;5036379;28;20029;-77
2022/10/11 14:00:53;;;;;;;;;;;17.30;82.70;;;;;;5038394;28;19991;-77
2022/10/11 14:03:21;;;;;;;;;;;17.30;82.80;;;;;;5031773;28;19976;-76
2022/10/11 14:05:53;;;;;;;;;;;17.30;82.90;;;;;;5033637;28;19976;-77
2022/10/11 14:08:21;;;;;;;;;;;17.30;83.20;;;;;;5040157;28;20451;-69
2022/10/11 14:10:48;;;;;;;;;;;17.30;83.40;;;;;;5037957;28;20087;-70
2022/10/11 14:13:24;;;;;;;;;;;17.30;83.40;;;;;;5045101;28;19995;-69
2022/10/11 14:16:05;;;;;;;;;;;17.30;83.40;;;;;;5043906;28;19995;-68
2022/10/11 14:18:34;;;;;;;;;;;17.30;83.40;;;;;;5037575;28;19983;-68
2022/10/11 14:21:16;;;;;;;;;;;17.30;83.70;;;;;;5043254;28;19988;-68
2022/10/11 14:23:42;;;;;;;;;;;17.30;83.70;;;;;;5038088;28;20596;-68
2022/10/11 14:26:09;;;;;;;;;;;17.30;83.70;;;;;;5043395;28;20344;-68